Time;durP1;ratioP1;P1;durP2;ratioP2;P2;SDS_P1;SDS_P2;PMS_P1;PMS_P2;Temp;Humidity;BMP_temperature;BMP_pressure;BME280_temperature;BME280_humidity;BME280_pressure;Samples;Min_cycle;Max_cycle;Signal;HPM_P1;HPM_P2
2022/01/02 00:01:26;;;;;;;10.38;6.03;;;11.10;99.90;;;;;;5053317;28;20044;-59
2022/01/02 00:03:52;;;;;;;12.00;6.60;;;11.10;99.90;;;;;;5053109;28;20055;-58
2022/01/02 00:06:25;;;;;;;12.23;6.72;;;11.10;99.90;;;;;;5052790;28;20056;-60
2022/01/02 00:09:01;;;;;;;13.38;7.50;;;11.10;99.90;;;;;;5053379;28;20367;-61
2022/01/02 00:11:26;;;;;;;14.70;7.30;;;11.00;99.90;;;;;;5053161;28;20116;-60
2022/01/02 00:13:56;;;;;;;14.18;6.78;;;11.10;99.90;;;;;;5051965;28;20124;-47
2022/01/02 00:16:24;;;;;;;13.43;6.55;;;11.10;99.90;;;;;;5052891;28;20599;-50
2022/01/02 00:19:03;;;;;;;11.07;6.65;;;11.10;99.90;;;;;;5053407;28;20048;-50
2022/01/02 00:21:32;;;;;;;15.57;6.50;;;11.10;99.90;;;;;;5052803;28;20385;-51
2022/01/02 00:24:05;;;;;;;16.70;7.53;;;11.10;99.90;;;;;;5052853;28;20049;-49
2022/01/02 00:26:39;;;;;;;16.48;7.60;;;11.10;99.90;;;;;;5052768;28;20048;-51
2022/01/02 00:29:07;;;;;;;13.23;6.70;;;11.10;99.90;;;;;;5052784;28;20045;-49
2022/01/02 00:31:33;;;;;;;17.23;7.57;;;11.20;99.90;;;;;;5034858;28;20041;-49
2022/01/02 00:34:00;;;;;;;13.02;7.43;;;11.10;99.90;;;;;;5057427;28;20128;-61
2022/01/02 00:36:26;;;;;;;14.07;7.07;;;11.10;99.90;;;;;;5072550;28;20049;-60
2022/01/02 00:38:52;;;;;;;13.68;6.60;;;11.10;99.90;;;;;;5072646;28;20069;-60
2022/01/02 00:41:27;;;;;;;15.07;7.30;;;11.10;99.90;;;;;;5072527;28;20120;-60
2022/01/02 00:44:20;;;;;;;12.75;6.47;;;11.10;99.90;;;;;;5072282;28;20036;-59
2022/01/02 00:47:07;;;;;;;14.45;7.53;;;11.20;99.90;;;;;;5067947;28;20051;-60
2022/01/02 00:49:39;;;;;;;19.05;7.55;;;11.10;99.90;;;;;;5069908;28;20052;-48
2022/01/02 00:52:12;;;;;;;13.80;6.53;;;11.20;99.90;;;;;;5052372;28;20131;-47
2022/01/02 00:54:43;;;;;;;16.60;7.43;;;11.20;99.90;;;;;;5052604;28;20052;-60
2022/01/02 00:57:17;;;;;;;18.63;7.43;;;11.20;99.90;;;;;;5052297;28;20103;-60
2022/01/02 00:59:48;;;;;;;15.88;7.78;;;11.10;99.90;;;;;;5052529;28;20041;-61
2022/01/02 01:02:18;;;;;;;13.98;7.45;;;11.20;99.90;;;;;;5052274;28;20052;-47
2022/01/02 01:04:46;;;;;;;16.95;7.97;;;11.20;99.90;;;;;;5051633;28;20053;-59
2022/01/02 01:07:13;;;;;;;14.45;7.38;;;11.20;99.90;;;;;;5051670;28;20584;-60
2022/01/02 01:09:40;;;;;;;13.38;7.28;;;11.10;99.90;;;;;;5052033;28;20040;-60
2022/01/02 01:12:06;;;;;;;15.73;7.82;;;11.20;99.90;;;;;;5052208;28;20100;-61
2022/01/02 01:14:32;;;;;;;16.75;7.45;;;11.20;99.90;;;;;;5050723;28;20040;-48
2022/01/02 01:16:58;;;;;;;15.95;7.70;;;11.20;99.90;;;;;;5052469;28;20122;-53
2022/01/02 01:19:24;;;;;;;14.35;6.68;;;11.10;99.90;;;;;;5050756;28;20051;-60
2022/01/02 01:21:51;;;;;;;14.00;7.72;;;11.10;99.90;;;;;;5052136;28;20044;-51
2022/01/02 01:24:17;;;;;;;16.60;7.50;;;11.20;99.90;;;;;;5051788;28;20045;-60
2022/01/02 01:26:45;;;;;;;19.70;7.82;;;11.10;99.90;;;;;;5051898;28;20037;-61
2022/01/02 01:29:11;;;;;;;16.55;7.30;;;11.10;99.90;;;;;;5051967;28;20041;-60
2022/01/02 01:31:37;;;;;;;14.60;7.25;;;11.10;99.90;;;;;;5052016;28;20044;-60
2022/01/02 01:34:02;;;;;;;17.73;7.97;;;11.10;99.90;;;;;;5057313;28;20046;-50
2022/01/02 01:36:28;;;;;;;14.75;7.95;;;11.10;99.90;;;;;;5071983;28;20048;-49
2022/01/02 01:38:54;;;;;;;17.45;7.75;;;11.10;99.90;;;;;;5071907;28;20071;-51
2022/01/02 01:41:35;;;;;;;19.02;9.10;;;11.10;99.90;;;;;;5071905;28;20458;-60
2022/01/02 01:44:21;;;;;;;16.52;8.52;;;11.10;99.90;;;;;;5071684;28;20396;-61
2022/01/02 01:46:51;;;;;;;17.58;8.85;;;11.20;99.90;;;;;;5071977;28;20037;-61
2022/01/02 01:49:20;;;;;;;16.17;7.82;;;11.10;99.90;;;;;;5070943;28;20041;-59
2022/01/02 01:51:46;;;;;;;15.75;8.00;;;11.10;99.90;;;;;;5050591;28;20041;-60
2022/01/02 01:54:12;;;;;;;15.07;8.02;;;11.10;99.90;;;;;;5051681;28;20489;-47
2022/01/02 01:56:39;;;;;;;22.77;8.80;;;11.10;99.90;;;;;;5051558;28;20499;-48
2022/01/02 01:59:06;;;;;;;19.23;9.32;;;11.20;99.90;;;;;;5051626;28;20120;-48
2022/01/02 02:01:32;;;;;;;21.15;9.15;;;11.10;99.90;;;;;;5051738;28;20098;-60
2022/01/02 02:03:58;;;;;;;17.05;9.57;;;11.20;99.90;;;;;;5051654;28;20371;-60
2022/01/02 02:06:24;;;;;;;16.73;8.57;;;11.20;99.90;;;;;;5051404;28;20491;-60
2022/01/02 02:08:52;;;;;;;18.85;9.25;;;11.10;99.90;;;;;;5051572;28;20389;-61
2022/01/02 02:11:20;;;;;;;19.13;9.20;;;11.10;99.90;;;;;;5051437;28;20045;-61
2022/01/02 02:13:46;;;;;;;18.38;8.90;;;11.10;99.90;;;;;;5051709;28;20076;-60
2022/01/02 02:16:12;;;;;;;22.08;10.18;;;11.10;99.90;;;;;;5051583;28;20047;-61
2022/01/02 02:18:38;;;;;;;22.58;9.95;;;11.10;99.90;;;;;;5055322;28;20032;-60
2022/01/02 02:21:04;;;;;;;20.73;10.45;;;11.10;99.90;;;;;;5055080;28;20049;-60
2022/01/02 02:23:29;;;;;;;22.55;11.20;;;11.10;99.90;;;;;;5055080;28;20401;-61
2022/01/02 02:25:55;;;;;;;30.05;11.70;;;11.20;99.90;;;;;;5055167;28;20044;-61
2022/01/02 02:28:26;;;;;;;22.25;11.48;;;11.10;99.90;;;;;;5054937;28;20044;-61
2022/01/02 02:30:52;;;;;;;21.98;11.90;;;11.10;99.90;;;;;;5054869;28;20091;-50
2022/01/02 02:33:18;;;;;;;22.42;11.70;;;11.20;99.90;;;;;;5054891;28;20083;-50
2022/01/02 02:35:46;;;;;;;22.10;11.27;;;11.10;99.90;;;;;;5074624;28;20116;-49
2022/01/02 02:38:14;;;;;;;20.98;11.55;;;11.00;99.90;;;;;;5073690;28;20041;-61
2022/01/02 02:40:41;;;;;;;22.10;11.13;;;11.10;99.90;;;;;;5074690;28;20562;-55
2022/01/02 02:49:03;;;;;;;26.17;12.27;;;11.00;99.90;;;;;;5032360;28;20052;-60
2022/01/02 02:51:57;;;;;;;21.42;11.55;;;10.90;99.90;;;;;;5037567;28;20136;-61
2022/01/02 02:54:22;;;;;;;26.38;12.30;;;10.90;99.90;;;;;;5054064;28;20455;-59
2022/01/02 02:56:56;;;;;;;27.77;13.23;;;11.00;99.90;;;;;;5054398;28;20485;-63
2022/01/02 02:59:24;;;;;;;25.40;11.73;;;11.00;99.90;;;;;;5054356;28;20140;-57
2022/01/02 03:01:51;;;;;;;27.80;13.05;;;10.90;99.90;;;;;;5053356;28;20051;-56
2022/01/02 03:04:17;;;;;;;28.25;13.45;;;10.90;99.90;;;;;;5054234;28;20044;-57
2022/01/02 03:06:42;;;;;;;26.67;13.43;;;10.90;99.90;;;;;;5054084;28;20053;-62
2022/01/02 03:09:09;;;;;;;30.10;14.20;;;10.80;99.90;;;;;;5054258;28;20539;-51
2022/01/02 03:11:37;;;;;;;28.88;14.00;;;10.80;99.90;;;;;;5054150;28;20048;-62
2022/01/02 03:14:04;;;;;;;26.63;13.32;;;10.80;99.90;;;;;;5054569;28;20466;-62
2022/01/02 03:16:30;;;;;;;27.63;12.45;;;10.80;99.90;;;;;;5054345;28;20075;-50
2022/01/02 03:18:56;;;;;;;28.27;13.02;;;10.80;99.90;;;;;;5054137;28;20082;-50
2022/01/02 03:21:22;;;;;;;26.30;13.60;;;10.80;99.90;;;;;;5054092;28;20452;-62
2022/01/02 03:23:48;;;;;;;25.38;13.55;;;10.80;99.90;;;;;;5053968;28;20072;-62
2022/01/02 03:26:15;;;;;;;24.23;13.25;;;10.80;99.90;;;;;;5053941;28;20041;-52
2022/01/02 03:28:40;;;;;;;24.00;12.40;;;10.80;99.90;;;;;;5053423;28;20440;-50
2022/01/02 03:31:06;;;;;;;21.02;12.55;;;10.80;99.90;;;;;;5052715;28;20041;-61
2022/01/02 03:33:32;;;;;;;25.42;13.38;;;10.80;99.90;;;;;;5055453;28;20041;-53
2022/01/02 03:35:58;;;;;;;24.00;13.23;;;10.90;99.90;;;;;;5073686;28;20040;-51
2022/01/02 03:38:25;;;;;;;25.15;14.27;;;10.80;99.90;;;;;;5073729;28;20048;-61
2022/01/02 03:40:51;;;;;;;24.80;13.82;;;10.80;99.90;;;;;;5072407;28;20178;-61
2022/01/02 03:43:17;;;;;;;21.35;12.63;;;10.90;99.90;;;;;;5073734;28;20124;-62
2022/01/02 03:45:42;;;;;;;25.63;13.38;;;10.80;99.90;;;;;;5073652;28;20039;-62
2022/01/02 03:48:08;;;;;;;23.65;13.45;;;10.80;99.90;;;;;;5073593;28;20044;-55
2022/01/02 03:50:34;;;;;;;26.45;13.55;;;10.80;99.90;;;;;;5062091;28;20405;-61
2022/01/02 03:52:59;;;;;;;27.83;14.30;;;10.70;99.90;;;;;;5053456;28;20133;-51
2022/01/02 03:55:25;;;;;;;25.50;14.63;;;10.80;99.90;;;;;;5053278;28;20075;-61
2022/01/02 03:57:51;;;;;;;24.30;14.18;;;10.70;99.90;;;;;;5053280;28;20055;-61
2022/01/02 04:00:18;;;;;;;28.20;15.13;;;10.70;99.90;;;;;;5053400;28;20043;-49
2022/01/02 04:02:44;;;;;;;29.20;15.32;;;10.80;99.90;;;;;;5052213;28;20052;-61
2022/01/02 04:05:12;;;;;;;34.40;16.25;;;10.80;99.90;;;;;;5053320;28;20057;-61
2022/01/02 04:07:38;;;;;;;24.70;14.20;;;10.80;99.90;;;;;;5053143;28;20489;-61
2022/01/02 04:10:07;;;;;;;29.17;14.93;;;10.80;99.90;;;;;;5052884;28;20576;-48
2022/01/02 04:12:33;;;;;;;30.55;16.05;;;10.80;99.90;;;;;;5051649;28;20049;-61
2022/01/02 04:15:00;;;;;;;32.40;15.93;;;10.70;99.90;;;;;;5053181;28;20460;-62
2022/01/02 04:17:26;;;;;;;31.67;15.55;;;10.80;99.90;;;;;;5053059;28;20032;-57
2022/01/02 04:19:52;;;;;;;29.77;15.10;;;10.70;99.90;;;;;;5052976;28;20470;-56
2022/01/02 04:22:18;;;;;;;27.30;14.93;;;10.70;99.90;;;;;;5052816;28;20080;-64
2022/01/02 04:24:44;;;;;;;34.10;15.40;;;10.80;99.90;;;;;;5052712;28;20115;-64
2022/01/02 04:27:10;;;;;;;32.00;15.02;;;10.80;99.90;;;;;;5053015;28;20039;-57
2022/01/02 04:29:36;;;;;;;28.90;14.07;;;10.80;99.90;;;;;;5051622;28;20037;-58
2022/01/02 04:32:02;;;;;;;30.42;13.77;;;10.80;99.90;;;;;;5052723;28;20064;-57
2022/01/02 04:34:28;;;;;;;27.30;13.95;;;10.80;99.90;;;;;;5062166;28;20131;-62
2022/01/02 04:36:53;;;;;;;35.17;15.98;;;10.90;99.90;;;;;;5072552;28;20131;-62
2022/01/02 04:39:19;;;;;;;31.38;13.45;;;10.80;99.90;;;;;;5072698;28;20036;-54
2022/01/02 04:41:45;;;;;;;29.73;14.30;;;10.80;99.90;;;;;;5071854;28;20040;-62
2022/01/02 04:44:10;;;;;;;27.90;13.75;;;10.90;99.90;;;;;;5072237;28;20573;-51
2022/01/02 04:46:36;;;;;;;25.75;14.48;;;10.80;99.90;;;;;;5072401;28;20043;-51
2022/01/02 04:49:02;;;;;;;26.73;13.68;;;10.90;99.90;;;;;;5072418;28;20032;-62
2022/01/02 04:51:28;;;;;;;24.60;13.30;;;10.80;99.90;;;;;;5053541;28;20481;-48
2022/01/02 04:53:54;;;;;;;26.45;13.85;;;10.90;99.90;;;;;;5052287;28;20041;-49
2022/01/02 04:56:19;;;;;;;24.98;13.68;;;10.90;99.90;;;;;;5052401;28;20037;-61
2022/01/02 04:58:45;;;;;;;27.02;14.05;;;10.90;99.90;;;;;;5052452;28;20080;-61
2022/01/02 05:01:12;;;;;;;25.92;14.25;;;10.90;99.90;;;;;;5052464;28;20045;-48
2022/01/02 05:03:44;;;;;;;26.73;14.18;;;11.00;99.90;;;;;;5052143;28;20507;-61
2022/01/02 05:06:11;;;;;;;25.80;14.70;;;10.90;99.90;;;;;;5052074;28;20091;-61
2022/01/02 05:08:37;;;;;;;31.17;15.27;;;10.90;99.90;;;;;;5052601;28;20033;-63
2022/01/02 05:11:03;;;;;;;28.38;15.30;;;11.00;99.90;;;;;;5052161;28;20040;-51
2022/01/02 05:13:29;;;;;;;22.73;14.32;;;10.90;99.90;;;;;;5052325;28;20062;-62
2022/01/02 05:15:55;;;;;;;25.85;14.75;;;10.90;99.90;;;;;;5052100;28;20164;-49
2022/01/02 05:18:21;;;;;;;30.23;15.10;;;10.90;99.90;;;;;;5051951;28;20084;-50
2022/01/02 05:20:46;;;;;;;28.20;14.85;;;11.00;99.90;;;;;;5051954;28;20048;-51
2022/01/02 05:23:13;;;;;;;28.55;15.00;;;11.00;99.90;;;;;;5051823;28;20052;-61
2022/01/02 05:25:39;;;;;;;29.27;13.77;;;10.90;99.90;;;;;;5052097;28;20037;-61
2022/01/02 05:28:05;;;;;;;27.50;14.95;;;11.10;99.90;;;;;;5052066;28;20474;-61
2022/01/02 05:30:31;;;;;;;24.00;13.98;;;11.00;99.90;;;;;;5051860;28;20108;-61
2022/01/02 05:32:56;;;;;;;29.02;13.57;;;11.00;99.90;;;;;;5051769;28;20033;-48
2022/01/02 05:35:22;;;;;;;27.88;13.57;;;10.90;99.90;;;;;;5069077;28;20044;-61
2022/01/02 05:37:48;;;;;;;34.42;13.95;;;10.90;99.90;;;;;;5071785;28;20040;-61
2022/01/02 05:40:13;;;;;;;29.00;12.85;;;11.00;99.90;;;;;;5070691;28;20045;-61
2022/01/02 05:42:39;;;;;;;28.55;12.02;;;11.00;99.90;;;;;;5071939;28;20510;-61
2022/01/02 05:45:05;;;;;;;26.42;11.30;;;10.90;99.90;;;;;;5071644;28;20048;-61
2022/01/02 05:47:31;;;;;;;25.10;10.98;;;11.00;99.90;;;;;;5071771;28;20127;-48
2022/01/02 05:49:56;;;;;;;24.02;10.93;;;10.90;99.90;;;;;;5065389;28;20116;-61
2022/01/02 05:52:22;;;;;;;29.73;11.30;;;10.90;99.90;;;;;;5053732;28;20033;-61
2022/01/02 05:54:48;;;;;;;24.98;10.55;;;11.00;99.90;;;;;;5055852;28;20060;-52
2022/01/02 05:57:13;;;;;;;20.52;10.48;;;10.90;99.90;;;;;;5055647;28;20044;-61
2022/01/02 05:59:40;;;;;;;26.92;11.20;;;11.00;99.90;;;;;;5055564;28;20055;-50
2022/01/02 06:02:06;;;;;;;25.65;10.02;;;11.00;99.90;;;;;;5055569;28;20117;-48
2022/01/02 06:04:32;;;;;;;22.98;10.15;;;11.10;99.90;;;;;;5055557;28;20509;-49
2022/01/02 06:06:57;;;;;;;24.90;10.65;;;11.10;99.90;;;;;;5055360;28;20040;-61
2022/01/02 06:09:23;;;;;;;23.27;10.05;;;11.00;99.90;;;;;;5055458;28;20032;-61
2022/01/02 06:11:49;;;;;;;26.52;10.93;;;11.10;99.90;;;;;;5055407;28;20069;-61
2022/01/02 06:14:16;;;;;;;19.88;8.80;;;11.00;99.90;;;;;;5055809;28;20045;-61
2022/01/02 06:16:42;;;;;;;21.10;9.82;;;11.20;99.90;;;;;;5055371;28;20059;-50
2022/01/02 06:19:07;;;;;;;21.00;8.73;;;11.10;99.90;;;;;;5055117;28;20481;-48
2022/01/02 06:21:33;;;;;;;22.70;8.55;;;11.10;99.90;;;;;;5055123;28;20068;-50
2022/01/02 06:23:58;;;;;;;20.25;8.02;;;11.20;99.90;;;;;;5055298;28;20033;-61
2022/01/02 06:26:24;;;;;;;17.85;7.60;;;11.10;99.90;;;;;;5055143;28;20052;-59
2022/01/02 06:28:50;;;;;;;21.23;8.73;;;11.10;99.90;;;;;;5055155;28;20075;-61
2022/01/02 06:31:15;;;;;;;22.17;8.98;;;11.20;99.90;;;;;;5054938;28;20041;-50
2022/01/02 06:33:41;;;;;;;20.23;8.77;;;11.20;99.90;;;;;;5057318;28;20051;-50
2022/01/02 06:36:07;;;;;;;20.60;8.20;;;11.10;99.90;;;;;;5074818;28;20070;-51
2022/01/02 06:38:33;;;;;;;19.33;8.43;;;11.20;99.90;;;;;;5073535;28;20040;-49
2022/01/02 06:40:58;;;;;;;25.65;9.55;;;11.10;99.90;;;;;;5074955;28;20036;-52
2022/01/02 06:43:24;;;;;;;20.05;8.68;;;11.10;99.90;;;;;;5074680;28;20040;-53
2022/01/02 06:45:49;;;;;;;20.90;8.70;;;11.20;99.90;;;;;;5074754;28;20051;-60
2022/01/02 06:48:15;;;;;;;21.08;8.48;;;11.10;99.90;;;;;;5074698;28;20060;-51
2022/01/02 06:50:41;;;;;;;19.63;7.85;;;11.30;99.90;;;;;;5062204;28;20549;-47
2022/01/02 06:53:07;;;;;;;18.50;7.53;;;11.30;99.90;;;;;;5054759;28;20044;-49
2022/01/02 06:55:33;;;;;;;17.40;8.05;;;11.20;99.90;;;;;;5054631;28;20052;-47
2022/01/02 06:57:58;;;;;;;17.83;8.00;;;11.20;99.90;;;;;;5054606;28;20049;-60
2022/01/02 07:00:24;;;;;;;17.17;6.88;;;11.30;99.90;;;;;;5054316;28;20052;-59
2022/01/02 07:02:50;;;;;;;23.13;8.18;;;11.20;99.90;;;;;;5053834;28;20052;-46
2022/01/02 07:05:15;;;;;;;20.33;6.65;;;11.30;99.90;;;;;;5053533;28;20060;-47
2022/01/02 07:07:46;;;;;;;20.55;7.20;;;11.30;99.90;;;;;;5054422;28;20052;-61
2022/01/02 07:10:14;;;;;;;19.98;8.07;;;11.30;99.90;;;;;;5054461;28;20052;-52
2022/01/02 07:12:40;;;;;;;17.80;7.18;;;11.30;99.90;;;;;;5054374;28;20045;-51
2022/01/02 07:15:07;;;;;;;14.35;6.28;;;11.30;99.90;;;;;;5052984;28;20041;-60
2022/01/02 07:17:33;;;;;;;18.48;6.63;;;11.30;99.90;;;;;;5069879;28;20455;-50
2022/01/02 07:19:59;;;;;;;16.75;7.32;;;11.30;99.90;;;;;;5054252;28;20049;-51
2022/01/02 07:22:25;;;;;;;19.42;6.95;;;11.30;99.90;;;;;;5054208;28;20037;-49
2022/01/02 07:24:51;;;;;;;15.10;5.80;;;11.30;99.90;;;;;;5053882;28;20393;-57
2022/01/02 07:27:20;;;;;;;14.52;5.70;;;11.30;99.90;;;;;;5053867;28;20539;-62
2022/01/02 07:29:47;;;;;;;17.90;6.30;;;11.30;99.90;;;;;;5053962;28;20037;-63
2022/01/02 07:32:13;;;;;;;16.40;5.80;;;11.30;99.90;;;;;;5052911;28;20049;-53
2022/01/02 07:34:39;;;;;;;17.00;5.78;;;11.40;99.90;;;;;;5062697;28;20048;-52
2022/01/02 07:37:05;;;;;;;14.77;5.40;;;11.40;99.90;;;;;;5072363;28;20048;-50
2022/01/02 07:39:30;;;;;;;14.23;5.53;;;11.40;99.90;;;;;;5072022;28;20121;-52
2022/01/02 07:41:56;;;;;;;15.57;5.57;;;11.50;99.90;;;;;;5072235;28;20047;-51
2022/01/02 07:44:22;;;;;;;20.60;5.70;;;11.40;99.90;;;;;;5071824;28;20099;-62
2022/01/02 07:46:47;;;;;;;16.45;5.32;;;11.40;99.90;;;;;;5063350;28;20036;-61
2022/01/02 07:49:13;;;;;;;16.42;5.93;;;11.40;99.90;;;;;;5063056;28;20059;-51
2022/01/02 07:51:39;;;;;;;16.67;6.10;;;11.40;99.90;;;;;;5070802;28;20040;-61
2022/01/02 07:54:05;;;;;;;13.80;5.00;;;11.50;99.90;;;;;;5071965;28;20039;-61
2022/01/02 07:56:30;;;;;;;15.13;5.60;;;11.50;99.90;;;;;;5072139;28;20097;-62
2022/01/02 07:58:58;;;;;;;13.32;5.68;;;11.40;99.90;;;;;;5071758;28;20043;-62
2022/01/02 08:01:24;;;;;;;14.13;5.57;;;11.50;99.90;;;;;;5071637;28;20044;-54
2022/01/02 08:03:51;;;;;;;15.18;5.88;;;11.40;99.90;;;;;;5071482;28;20080;-52
2022/01/02 08:06:17;;;;;;;17.58;5.60;;;11.40;99.90;;;;;;5071157;28;20052;-51
2022/01/02 08:08:43;;;;;;;16.83;5.68;;;11.40;99.90;;;;;;5070240;28;20037;-51
2022/01/02 08:11:09;;;;;;;14.68;5.68;;;11.40;99.90;;;;;;5071383;28;20037;-49
2022/01/02 08:13:34;;;;;;;14.63;4.88;;;11.40;99.90;;;;;;5069954;28;20396;-49
2022/01/02 08:16:00;;;;;;;16.02;6.03;;;11.30;99.90;;;;;;5060309;28;20135;-48
2022/01/02 08:18:26;;;;;;;17.52;5.75;;;11.40;99.90;;;;;;5061986;28;20439;-56
2022/01/02 08:20:51;;;;;;;19.13;6.38;;;11.40;99.90;;;;;;5051327;28;20040;-62
2022/01/02 08:23:17;;;;;;;15.20;6.03;;;11.30;99.90;;;;;;5051061;28;20037;-53
2022/01/02 08:25:43;;;;;;;15.05;7.03;;;11.30;99.90;;;;;;5051191;28;20051;-59
2022/01/02 08:28:08;;;;;;;12.73;5.95;;;11.30;99.90;;;;;;5051061;28;20385;-60
2022/01/02 08:30:34;;;;;;;16.08;6.40;;;11.30;99.90;;;;;;5050861;28;20049;-47
2022/01/02 08:33:00;;;;;;;14.70;6.85;;;11.30;99.90;;;;;;5051163;28;20063;-48
2022/01/02 08:35:26;;;;;;;13.40;6.75;;;11.30;99.90;;;;;;5067989;28;20123;-60
2022/01/02 08:37:52;;;;;;;13.48;7.22;;;11.30;99.90;;;;;;5070685;28;20028;-60
2022/01/02 08:40:17;;;;;;;15.68;7.20;;;11.10;99.90;;;;;;5069671;28;20086;-59
2022/01/02 08:42:43;;;;;;;18.08;7.15;;;11.20;99.90;;;;;;5070808;28;20076;-59
2022/01/02 08:45:09;;;;;;;14.10;6.13;;;11.20;99.90;;;;;;5070502;28;20055;-59
2022/01/02 08:47:35;;;;;;;14.60;6.50;;;11.20;99.90;;;;;;5070567;28;20041;-59
2022/01/02 08:50:02;;;;;;;15.52;6.72;;;11.20;99.90;;;;;;5063819;28;20075;-59
2022/01/02 08:52:27;;;;;;;12.32;6.00;;;11.20;99.90;;;;;;5051048;28;20370;-59
2022/01/02 08:54:53;;;;;;;12.60;6.55;;;11.20;99.90;;;;;;5049336;28;20044;-59
2022/01/02 08:57:19;;;;;;;13.10;6.65;;;11.30;99.90;;;;;;5050721;28;20508;-58
2022/01/02 08:59:45;;;;;;;13.82;6.68;;;11.30;99.90;;;;;;5050563;28;20059;-59
2022/01/02 09:02:11;;;;;;;9.77;5.75;;;11.20;99.90;;;;;;5050695;28;20049;-59
2022/01/02 09:04:36;;;;;;;10.38;5.53;;;11.20;99.90;;;;;;5050253;28;20041;-59
2022/01/02 09:07:02;;;;;;;10.23;5.72;;;11.20;99.90;;;;;;5050086;28;20053;-59
2022/01/02 09:09:28;;;;;;;10.88;5.25;;;11.20;99.90;;;;;;5050418;28;20037;-60
2022/01/02 09:11:54;;;;;;;8.52;5.25;;;11.20;99.90;;;;;;5049188;28;20077;-47
2022/01/02 09:14:20;;;;;;;9.75;5.18;;;11.20;99.90;;;;;;5050191;28;20556;-47
2022/01/02 09:16:46;;;;;;;9.68;5.32;;;11.20;99.90;;;;;;5050494;28;20478;-59
2022/01/02 09:19:12;;;;;;;11.05;5.50;;;11.10;99.90;;;;;;5050208;28;20493;-60
2022/01/02 09:21:39;;;;;;;11.00;6.00;;;11.20;99.90;;;;;;5050188;28;20098;-59
2022/01/02 09:24:05;;;;;;;12.38;7.40;;;11.20;99.90;;;;;;5050157;28;20527;-59
2022/01/02 09:26:31;;;;;;;11.23;7.15;;;11.20;99.90;;;;;;5048492;28;20041;-59
2022/01/02 09:28:57;;;;;;;11.48;7.28;;;11.20;99.90;;;;;;5050124;28;20036;-59
2022/01/02 09:31:23;;;;;;;14.40;8.23;;;11.10;99.90;;;;;;5050182;28;20501;-59
2022/01/02 09:33:49;;;;;;;17.65;8.50;;;11.10;99.90;;;;;;5053979;28;20075;-59
2022/01/02 09:36:16;;;;;;;12.70;7.13;;;11.10;99.90;;;;;;5070274;28;20072;-48
2022/01/02 09:38:42;;;;;;;12.25;6.78;;;11.10;99.90;;;;;;5070170;28;20094;-47
2022/01/02 09:41:08;;;;;;;14.38;7.88;;;11.10;99.90;;;;;;5070329;28;20040;-59
2022/01/02 09:43:34;;;;;;;11.43;6.45;;;11.10;99.90;;;;;;5070070;28;20049;-59
2022/01/02 09:46:02;;;;;;;13.70;7.20;;;11.00;99.90;;;;;;5070094;28;20036;-59
2022/01/02 09:48:28;;;;;;;12.95;7.32;;;11.10;99.90;;;;;;5070305;28;20392;-59
2022/01/02 09:50:56;;;;;;;13.90;7.60;;;11.10;99.90;;;;;;5054726;28;20041;-60
2022/01/02 09:53:22;;;;;;;14.82;7.70;;;11.10;99.90;;;;;;5049993;28;20045;-59
2022/01/02 09:55:49;;;;;;;11.98;7.75;;;11.00;99.90;;;;;;5049979;28;20120;-47
2022/01/02 09:58:14;;;;;;;16.20;7.95;;;11.00;99.90;;;;;;5050444;28;20080;-48
2022/01/02 10:00:47;;;;;;;17.55;8.68;;;11.10;99.90;;;;;;5049962;28;20083;-46
2022/01/02 10:03:12;;;;;;;;;;;11.00;99.90;;;;;;5049244;28;20098;-49
2022/01/02 10:05:59;;;;;;;13.70;7.55;;;11.00;99.90;;;;;;5050096;28;20011;-59
2022/01/02 10:08:31;;;;;;;14.70;7.95;;;11.00;99.90;;;;;;5049860;28;20559;-49
2022/01/02 10:11:15;;;;;;;16.40;8.90;;;11.00;99.90;;;;;;5049999;28;20493;-46
2022/01/02 10:13:45;;;;;;;15.43;8.43;;;10.90;99.90;;;;;;5048697;28;20452;-59
2022/01/02 10:16:31;;;;;;;13.82;7.80;;;11.00;99.90;;;;;;5049919;28;20052;-59
2022/01/02 10:18:59;;;;;;;14.80;8.55;;;11.00;99.90;;;;;;5049519;28;20116;-47
2022/01/02 10:21:37;;;;;;;14.23;8.55;;;11.00;99.90;;;;;;5050309;28;20041;-47
2022/01/02 10:24:22;;;;;;;14.02;8.88;;;11.00;99.90;;;;;;5050634;28;20049;-46
2022/01/02 10:27:10;;;;;;;18.65;9.55;;;11.00;99.90;;;;;;5051388;28;20036;-46
2022/01/02 10:29:42;;;;;;;19.70;10.20;;;11.00;99.90;;;;;;5049650;28;20048;-48
2022/01/02 10:32:37;;;;;;;21.65;9.75;;;11.00;99.90;;;;;;5066514;28;20128;-48
2022/01/02 10:35:13;;;;;;;19.52;10.75;;;11.00;99.90;;;;;;5064948;28;20033;-52
2022/01/02 10:37:41;;;;;;;18.02;10.07;;;11.10;99.90;;;;;;5071150;28;20110;-59
2022/01/02 10:40:23;;;;;;;17.50;10.60;;;11.00;99.90;;;;;;5073713;28;20047;-60
2022/01/02 10:42:49;;;;;;;21.45;10.15;;;11.10;99.90;;;;;;5074786;28;20045;-59
2022/01/02 10:45:31;;;;;;;22.33;9.82;;;11.00;99.90;;;;;;5074625;28;20512;-59
2022/01/02 10:47:57;;;;;;;22.83;11.23;;;11.10;99.90;;;;;;5074674;28;20393;-59
2022/01/02 10:50:22;;;;;;;18.83;9.75;;;11.10;99.90;;;;;;5064561;28;20044;-60
2022/01/02 10:52:48;;;;;;;17.25;10.27;;;11.10;99.90;;;;;;5054762;28;20040;-59
2022/01/02 10:55:17;;;;;;;23.73;9.70;;;11.10;99.90;;;;;;5054295;28;20052;-60
2022/01/02 10:57:46;;;;;;;19.25;8.25;;;11.10;99.90;;;;;;5053934;28;20040;-48
2022/01/02 11:00:13;;;;;;;15.48;7.07;;;11.10;99.90;;;;;;5054384;28;20068;-50
2022/01/02 11:02:40;;;;;;;16.42;7.90;;;11.10;99.90;;;;;;5054176;28;20079;-48
2022/01/02 11:05:13;;;;;;;17.20;6.80;;;11.10;99.90;;;;;;5036266;28;20049;-59
2022/01/02 11:07:44;;;;;;;14.48;6.25;;;11.10;99.90;;;;;;5053654;28;20118;-60
2022/01/02 11:10:12;;;;;;;21.55;6.60;;;11.20;99.90;;;;;;5051861;28;20041;-59
2022/01/02 11:12:40;;;;;;;19.90;6.32;;;11.20;99.90;;;;;;5053737;28;20102;-59
2022/01/02 11:15:11;;;;;;;17.88;6.22;;;11.30;99.90;;;;;;5054007;28;20103;-59
2022/01/02 11:17:38;;;;;;;15.48;6.00;;;11.30;99.90;;;;;;5053855;28;20040;-59
2022/01/02 11:20:05;;;;;;;16.70;5.35;;;11.30;99.90;;;;;;5053976;28;20132;-60
2022/01/02 11:22:41;;;;;;;13.38;5.70;;;11.30;99.90;;;;;;5053930;28;20107;-59
2022/01/02 11:25:17;;;;;;;17.30;6.15;;;11.30;99.90;;;;;;5053679;28;20068;-60
2022/01/02 11:27:54;;;;;;;18.80;5.85;;;11.30;99.90;;;;;;5053504;28;20049;-60
2022/01/02 11:30:32;;;;;;;16.50;5.50;;;11.30;99.90;;;;;;5053852;28;20452;-59
2022/01/02 11:33:13;;;;;;;17.10;5.45;;;11.30;99.90;;;;;;5053667;28;20040;-59
2022/01/02 11:35:42;;;;;;;13.60;4.95;;;11.30;99.90;;;;;;5072045;28;20060;-60
2022/01/02 11:38:08;;;;;;;18.75;5.70;;;11.20;99.90;;;;;;5073048;28;20040;-60
2022/01/02 11:40:58;;;;;;;12.82;4.85;;;11.30;99.90;;;;;;5073548;28;20032;-59
2022/01/02 11:43:36;;;;;;;19.40;5.70;;;11.20;99.90;;;;;;5072182;28;20044;-59
2022/01/02 11:46:21;;;;;;;13.98;5.00;;;11.20;99.90;;;;;;5073971;28;20040;-61
2022/01/02 11:49:05;;;;;;;17.15;5.82;;;11.20;99.90;;;;;;5073608;28;20037;-59
2022/01/02 11:51:51;;;;;;;18.38;5.35;;;11.20;99.90;;;;;;5053834;28;20448;-59
2022/01/02 11:54:30;;;;;;;18.65;6.32;;;11.20;99.90;;;;;;5053354;28;20060;-59
2022/01/02 11:57:03;;;;;;;16.27;4.88;;;11.20;99.90;;;;;;5053147;28;20045;-60
2022/01/02 11:59:47;;;;;;;13.65;4.53;;;11.20;99.90;;;;;;5053496;28;20041;-60
2022/01/02 12:02:12;;;;;;;18.65;5.18;;;11.20;99.90;;;;;;5059310;28;20040;-59
2022/01/02 12:05:01;;;;;;;20.50;5.25;;;11.20;99.90;;;;;;5064224;28;20439;-60
2022/01/02 12:07:33;;;;;;;17.92;4.75;;;11.20;99.90;;;;;;5061720;28;20063;-59
2022/01/02 12:10:17;;;;;;;20.08;4.60;;;11.20;99.90;;;;;;5061939;28;20550;-59
2022/01/02 12:13:02;;;;;;;15.05;4.13;;;11.30;99.90;;;;;;5063535;28;20036;-59
2022/01/02 12:15:33;;;;;;;21.10;5.88;;;11.20;99.90;;;;;;5061637;28;20044;-59
2022/01/02 12:18:16;;;;;;;17.45;4.13;;;11.30;99.90;;;;;;5063431;28;20508;-59
2022/01/02 12:20:52;;;;;;;19.42;4.70;;;11.30;99.90;;;;;;5061782;28;20036;-60
2022/01/02 12:23:30;;;;;;;15.93;4.40;;;11.40;99.90;;;;;;5055015;28;20130;-60
2022/01/02 12:26:05;;;;;;;14.43;3.90;;;11.40;99.90;;;;;;5062153;28;20041;-60
2022/01/02 12:28:57;;;;;;;15.52;4.20;;;11.40;99.90;;;;;;5072692;28;20124;-60
2022/01/02 12:31:32;;;;;;;23.00;6.20;;;11.30;99.90;;;;;;5072780;28;20123;-60
2022/01/02 12:34:27;;;;;;;17.80;4.18;;;11.30;99.90;;;;;;5072146;28;20040;-60
2022/01/02 12:36:55;;;;;;;17.95;4.40;;;11.30;99.90;;;;;;5063324;28;20472;-59
2022/01/02 12:39:31;;;;;;;15.40;3.83;;;11.40;99.90;;;;;;5072435;28;20066;-59
2022/01/02 12:42:01;;;;;;;17.85;3.72;;;11.30;99.90;;;;;;5072504;28;20048;-59
2022/01/02 12:44:29;;;;;;;17.92;3.45;;;11.30;99.90;;;;;;5070963;28;20127;-58
2022/01/02 12:47:00;;;;;;;17.88;4.68;;;11.30;99.90;;;;;;5072151;28;20033;-60